Blackwood Terrace, New Jersey
Current Conditions -  °F | °C
As of 11:10 AM on Wednesday 26 Nov 2014 (Local Time) from KPHL Reporting Station
Light Snow Light Snow  
Wind Chill: 26°   Ceiling: 800
Heat Index: 35°   Visibility: 2.5mi
Dew Point: 32°   Wind: 15mph
Humidity: 89%   Direction: 360°N
Pressure: 30.04"   Gusts: NA
Location:  39.8266°N, 75.1276°W
Report Text: KPHL 261610Z 36013KT 2 1/2SM -SNRA BR BKN008 OVC013 02/00 A3004 RMK AO2 SNE02B06PLE06 P0001 T00170000 $
Loading
Personal Weather Stations






























Interactive Weather Map New forecast layout! Learn more

10-Day Weather Forecast

Advertisements
Track Severe Weather on mobile